createdAt,value
2023-05-19T00:00:38.277Z,14.7362
2023-05-19T00:01:39.983Z,14.7228
2023-05-19T00:02:42.450Z,14.7993
2023-05-19T00:03:43.415Z,14.7993
2023-05-19T00:04:44.880Z,14.7873
2023-05-19T00:05:46.599Z,14.7717
2023-05-19T00:06:48.140Z,14.7703
2023-05-19T00:07:49.868Z,14.7758
2023-05-19T00:08:51.981Z,14.7730
2023-05-19T00:09:53.104Z,14.7658
2023-05-19T00:10:54.860Z,14.7107
2023-05-19T00:11:56.511Z,14.7639
2023-05-19T00:12:58.083Z,14.8208
2023-05-19T00:13:59.746Z,14.8044
2023-05-19T00:15:01.338Z,14.7904
2023-05-19T00:16:03.042Z,14.7573
2023-05-19T00:17:04.637Z,14.7551
2023-05-19T00:18:06.366Z,14.7442
2023-05-19T00:19:08.022Z,14.7432
2023-05-19T00:20:09.595Z,14.7465
2023-05-19T00:21:11.189Z,14.8126
2023-05-19T00:22:12.899Z,14.8021
2023-05-19T00:23:14.499Z,14.7327
2023-05-19T00:24:16.190Z,14.7512
2023-05-19T00:25:17.795Z,14.7327
2023-05-19T00:26:19.506Z,14.6456
2023-05-19T00:27:21.106Z,14.6171
2023-05-19T00:28:22.770Z,14.6986
2023-05-19T00:29:24.388Z,14.7545
2023-05-19T00:30:26.080Z,14.7288
2023-05-19T00:31:27.747Z,14.7235
2023-05-19T00:32:29.416Z,14.6879
2023-05-19T00:33:30.992Z,14.6512
2023-05-19T00:34:32.921Z,14.6372
2023-05-19T00:35:34.280Z,14.5908
2023-05-19T00:36:35.979Z,14.5980
2023-05-19T00:37:37.510Z,14.6421
2023-05-19T00:38:39.214Z,14.6793
2023-05-19T00:39:40.915Z,14.6725
2023-05-19T00:40:42.600Z,14.6236
2023-05-19T00:41:44.160Z,14.6010
2023-05-19T00:42:45.832Z,14.5696
2023-05-19T00:43:47.403Z,14.5651
2023-05-19T00:44:49.163Z,14.5980
2023-05-19T00:45:51.411Z,14.6292
2023-05-19T00:46:52.391Z,14.6830
2023-05-19T00:47:53.993Z,14.6709
2023-05-19T00:48:55.665Z,14.6378
2023-05-19T00:49:57.302Z,14.6012
2023-05-19T00:50:58.984Z,14.5406
2023-05-19T00:52:00.557Z,14.5369
2023-05-19T00:53:02.254Z,14.5310
2023-05-19T00:54:03.850Z,14.6113
2023-05-19T00:55:05.948Z,14.6310
2023-05-19T00:56:07.186Z,14.6302
2023-05-19T00:57:08.783Z,14.5971
2023-05-19T00:58:11.417Z,14.5858
2023-05-19T00:59:12.143Z,14.5466
2023-05-19T01:00:13.745Z,14.5645
2023-05-19T01:01:15.442Z,14.5641
2023-05-19T01:02:17.027Z,14.5912
2023-05-19T01:03:18.728Z,14.6021
2023-05-19T01:04:20.308Z,14.6058
2023-05-19T01:05:22.112Z,14.5943
2023-05-19T01:06:23.646Z,14.5634
2023-05-19T01:07:25.290Z,14.5651
2023-05-19T01:08:27.012Z,14.5579
2023-05-19T01:09:28.591Z,14.6025
2023-05-19T01:10:30.421Z,14.6201
2023-05-19T01:11:32.411Z,14.6918
2023-05-19T01:12:33.468Z,14.6532
2023-05-19T01:13:35.185Z,14.5819
2023-05-19T01:14:36.732Z,14.5591
2023-05-19T01:15:38.457Z,14.5057
2023-05-19T01:16:40.128Z,14.5505
2023-05-19T01:17:41.820Z,14.5951
2023-05-19T01:18:43.365Z,14.5575
2023-05-19T01:19:45.027Z,14.5462
2023-05-19T01:20:46.668Z,14.5283
2023-05-19T01:21:48.394Z,14.4926
2023-05-19T01:22:49.969Z,14.4322
2023-05-19T01:23:51.580Z,14.4238
2023-05-19T01:24:53.942Z,14.5146
2023-05-19T01:25:54.957Z,14.5807
2023-05-19T01:26:56.965Z,14.5906
2023-05-19T01:27:58.187Z,14.5828
2023-05-19T01:28:59.765Z,14.5435
2023-05-19T01:30:01.547Z,14.4702
2023-05-19T01:31:03.161Z,14.4579
2023-05-19T01:32:04.852Z,14.4852
2023-05-19T01:33:06.470Z,14.5489
2023-05-19T01:34:08.120Z,14.4924
2023-05-19T01:35:09.689Z,14.4881
2023-05-19T01:36:11.322Z,14.5271
2023-05-19T01:37:13.948Z,14.5271
2023-05-19T01:38:14.633Z,14.5129
2023-05-19T01:39:16.282Z,14.4708
2023-05-19T01:40:17.872Z,14.4242
2023-05-19T01:41:19.586Z,14.4277
2023-05-19T01:42:21.230Z,14.4256
2023-05-19T01:43:22.830Z,14.4326
2023-05-19T01:44:25.451Z,14.4801
2023-05-19T01:45:26.148Z,14.4780
2023-05-19T01:46:27.936Z,14.5285
2023-05-19T01:47:29.510Z,14.5199
2023-05-19T01:48:31.092Z,14.4579
2023-05-19T01:49:32.739Z,14.4326
2023-05-19T01:50:34.603Z,14.4965
2023-05-19T01:51:36.097Z,14.5269
2023-05-19T01:52:38.400Z,14.5168
2023-05-19T01:53:39.344Z,14.5591
2023-05-19T01:54:40.947Z,14.5926
2023-05-19T01:55:42.662Z,14.5924
2023-05-19T01:56:44.427Z,14.5764
2023-05-19T01:57:45.994Z,14.5497
2023-05-19T01:58:47.603Z,14.5158
2023-05-19T01:59:49.264Z,14.4856
2023-05-19T02:00:50.894Z,14.4497
2023-05-19T02:01:52.613Z,14.5160
2023-05-19T02:02:54.249Z,14.5312
2023-05-19T02:03:55.792Z,14.4798
2023-05-19T02:04:57.524Z,14.4924
2023-05-19T02:05:59.229Z,14.4213
2023-05-19T02:07:00.770Z,14.4061
2023-05-19T02:08:02.515Z,14.4636
2023-05-19T02:09:04.073Z,14.5170
2023-05-19T02:10:05.724Z,14.5123
2023-05-19T02:11:07.311Z,14.5293
2023-05-19T02:12:09.063Z,14.5351
2023-05-19T02:13:10.984Z,14.4885
2023-05-19T02:14:12.327Z,14.4330
2023-05-19T02:15:13.914Z,14.3999
2023-05-19T02:16:15.639Z,14.4494
2023-05-19T02:17:17.241Z,14.4741
2023-05-19T02:18:18.883Z,14.5616
2023-05-19T02:19:20.667Z,14.5561
2023-05-19T02:20:22.206Z,14.5382
2023-05-19T02:21:23.818Z,14.4899
2023-05-19T02:22:25.464Z,14.4034
2023-05-19T02:23:27.111Z,14.4848
2023-05-19T02:24:28.744Z,14.4975
2023-05-19T02:25:30.390Z,14.5191
2023-05-19T02:26:32.020Z,14.5630
2023-05-19T02:27:33.932Z,14.5359
2023-05-19T02:28:35.360Z,14.5626
2023-05-19T02:29:37.912Z,14.5528
2023-05-19T02:30:38.596Z,14.5731
2023-05-19T02:31:40.308Z,14.5404
2023-05-19T02:32:41.962Z,14.5437
2023-05-19T02:33:43.940Z,14.5217
2023-05-19T02:34:45.215Z,14.4983
2023-05-19T02:35:46.786Z,14.4521
2023-05-19T02:36:48.439Z,14.4585
2023-05-19T02:37:50.224Z,14.4708
2023-05-19T02:38:51.756Z,14.5156
2023-05-19T02:39:53.391Z,14.5581
2023-05-19T02:40:55.141Z,14.5139
2023-05-19T02:41:56.756Z,14.4484
2023-05-19T02:42:58.356Z,14.4022
2023-05-19T02:44:00.476Z,14.4568
2023-05-19T02:45:01.602Z,14.4868
2023-05-19T02:46:03.317Z,14.5326
2023-05-19T02:47:04.882Z,14.5482
2023-05-19T02:48:06.699Z,14.5178
2023-05-19T02:49:08.315Z,14.4809
2023-05-19T02:50:09.924Z,14.3835
2023-05-19T02:51:11.562Z,14.3648
2023-05-19T02:52:13.318Z,14.4862
2023-05-19T02:53:15.064Z,14.7471
2023-05-19T02:54:17.006Z,15.0558
2023-05-19T02:55:18.124Z,15.5459
2023-05-19T02:56:19.819Z,16.0724
2023-05-19T02:57:21.427Z,16.5466
2023-05-19T02:58:23.165Z,16.6058
2023-05-19T02:59:25.715Z,16.4485
2023-05-19T03:00:26.366Z,16.3082
2023-05-19T03:01:28.062Z,16.2085
2023-05-19T03:02:29.764Z,16.1603
2023-05-19T03:03:31.436Z,16.1399
2023-05-19T03:04:32.943Z,16.1395
2023-05-19T03:05:34.659Z,16.1441
2023-05-19T03:06:36.269Z,16.0715
2023-05-19T03:07:38.582Z,16.0559
2023-05-19T03:08:42.176Z,16.1024
2023-05-19T03:09:41.188Z,16.1332
2023-05-19T03:10:42.708Z,16.1475
2023-05-19T03:11:44.393Z,16.1539
2023-05-19T03:12:46.010Z,16.1438
2023-05-19T03:13:47.728Z,16.1155
2023-05-19T03:14:49.390Z,16.1350
2023-05-19T03:15:50.963Z,16.1876
2023-05-19T03:16:52.846Z,16.2552
2023-05-19T03:17:54.278Z,16.3343
2023-05-19T03:18:55.899Z,16.3174
2023-05-19T03:19:57.553Z,16.3199
2023-05-19T03:20:59.179Z,16.3250
2023-05-19T03:22:00.767Z,16.3302
2023-05-19T03:23:02.384Z,16.2995
2023-05-19T03:24:04.108Z,16.3688
2023-05-19T03:25:09.003Z,16.3794
2023-05-19T03:26:07.366Z,16.3918
2023-05-19T03:27:09.029Z,16.3152
2023-05-19T03:28:10.663Z,16.3057
2023-05-19T03:29:12.275Z,16.2539
2023-05-19T03:30:15.017Z,16.2757
2023-05-19T03:31:15.582Z,16.2761
2023-05-19T03:32:17.249Z,16.3951
2023-05-19T03:33:18.927Z,16.4384
2023-05-19T03:34:21.495Z,16.4676
2023-05-19T03:35:22.155Z,16.5150
2023-05-19T03:36:23.745Z,16.5754
2023-05-19T03:37:25.411Z,16.6261
2023-05-19T03:38:27.048Z,16.5438
2023-05-19T03:39:28.660Z,16.3897
2023-05-19T03:40:30.554Z,16.3622
2023-05-19T03:41:32.040Z,16.3332
2023-05-19T03:42:33.693Z,16.1901
2023-05-19T03:43:35.324Z,16.1459
2023-05-19T03:44:36.965Z,16.1280
2023-05-19T03:45:38.681Z,16.2131
2023-05-19T03:46:40.273Z,16.2020
2023-05-19T03:47:41.914Z,16.1710
2023-05-19T03:48:43.578Z,16.2071
2023-05-19T03:49:45.176Z,16.2622
2023-05-19T03:50:46.869Z,16.3279
2023-05-19T03:51:48.443Z,16.2585
2023-05-19T03:52:50.127Z,16.2944
2023-05-19T03:53:51.775Z,16.3291
2023-05-19T03:54:54.482Z,16.3813
2023-05-19T03:55:55.443Z,16.3663
2023-05-19T03:56:56.694Z,16.5327
2023-05-19T03:57:58.373Z,16.4676
2023-05-19T03:59:00.029Z,16.2431
2023-05-19T04:00:01.789Z,16.2394
2023-05-19T04:01:03.373Z,16.2952
2023-05-19T04:02:04.934Z,16.2671
2023-05-19T04:03:06.632Z,16.2574
2023-05-19T04:04:08.269Z,16.3094
2023-05-19T04:05:10.001Z,16.2620
2023-05-19T04:06:11.522Z,16.2595
2023-05-19T04:07:13.181Z,16.2139
2023-05-19T04:08:14.776Z,16.2700
2023-05-19T04:09:16.452Z,16.4721
2023-05-19T04:10:19.239Z,16.3517
2023-05-19T04:11:19.904Z,16.2683
2023-05-19T04:12:21.571Z,16.2979
2023-05-19T04:13:23.237Z,16.2274
2023-05-19T04:14:25.769Z,16.2096
2023-05-19T04:15:27.327Z,16.2088
2023-05-19T04:16:28.224Z,16.2607
2023-05-19T04:17:29.769Z,16.2837
2023-05-19T04:18:31.434Z,16.2470
2023-05-19T04:19:33.027Z,16.2213
2023-05-19T04:20:35.158Z,16.2357
2023-05-19T04:21:36.288Z,16.2447
2023-05-19T04:22:37.972Z,16.2482
2023-05-19T04:23:39.615Z,16.2324
2023-05-19T04:24:41.274Z,16.3065
2023-05-19T04:25:42.940Z,16.3223
2023-05-19T04:26:44.573Z,16.2747
2023-05-19T04:27:46.235Z,16.2648
2023-05-19T04:28:47.879Z,16.2539
2023-05-19T04:29:49.469Z,16.3147
2023-05-19T04:30:51.307Z,16.3784
2023-05-19T04:31:52.779Z,16.5407
2023-05-19T04:32:55.431Z,16.4754
2023-05-19T04:33:55.973Z,16.4131
2023-05-19T04:34:57.754Z,16.3184
2023-05-19T04:35:59.405Z,16.3152
2023-05-19T04:37:01.029Z,16.3240
2023-05-19T04:38:02.664Z,16.3692
2023-05-19T04:39:04.286Z,16.4618
2023-05-19T04:40:06.176Z,16.5795
2023-05-19T04:41:07.558Z,16.4834
2023-05-19T04:42:09.234Z,16.4296
2023-05-19T04:43:10.866Z,16.4129
2023-05-19T04:44:12.479Z,16.3692
2023-05-19T04:45:14.336Z,16.3887
2023-05-19T04:46:16.902Z,16.6682
2023-05-19T04:47:17.323Z,16.8355
2023-05-19T04:48:19.106Z,16.7110
2023-05-19T04:49:20.649Z,16.6192
2023-05-19T04:50:22.423Z,16.5464
2023-05-19T04:51:24.031Z,16.5998
2023-05-19T04:52:25.719Z,16.8570
2023-05-19T04:53:27.277Z,17.0304
2023-05-19T04:54:28.966Z,17.3375
2023-05-19T04:55:30.551Z,17.5653
2023-05-19T04:56:32.328Z,17.8122
2023-05-19T04:57:33.821Z,18.0625
2023-05-19T04:58:35.475Z,18.3456
2023-05-19T04:59:37.690Z,18.6342
2023-05-19T05:00:38.749Z,18.9939
2023-05-19T05:01:40.519Z,19.3751
2023-05-19T05:02:43.251Z,19.4560
2023-05-19T05:03:43.731Z,19.5396
2023-05-19T05:04:45.291Z,19.6195
2023-05-19T05:05:46.969Z,19.7483
2023-05-19T05:06:48.673Z,19.9790
2023-05-19T05:07:51.187Z,19.7604
2023-05-19T05:08:51.857Z,19.6413
2023-05-19T05:09:53.441Z,19.7771
2023-05-19T05:10:55.125Z,20.0030
2023-05-19T05:11:56.904Z,20.2282
2023-05-19T05:12:58.427Z,20.1287
2023-05-19T05:14:00.178Z,19.9118
2023-05-19T05:15:01.788Z,20.0410
2023-05-19T05:16:03.442Z,20.3309
2023-05-19T05:17:05.211Z,20.6234
2023-05-19T05:18:06.704Z,20.5463
2023-05-19T05:19:08.341Z,20.3298
2023-05-19T05:20:09.954Z,20.3255
2023-05-19T05:21:11.604Z,20.5131
2023-05-19T05:22:13.278Z,20.7201
2023-05-19T05:23:14.925Z,20.7809
2023-05-19T05:24:16.476Z,20.5638
2023-05-19T05:25:18.272Z,20.3808
2023-05-19T05:26:19.838Z,20.3715
2023-05-19T05:27:21.564Z,20.4691
2023-05-19T05:28:23.084Z,20.8212
2023-05-19T05:29:24.790Z,20.5693
2023-05-19T05:30:26.335Z,20.5170
2023-05-19T05:31:28.016Z,20.5124
2023-05-19T05:32:30.809Z,20.5921
2023-05-19T05:33:31.190Z,20.9528
2023-05-19T05:34:33.043Z,20.9812
2023-05-19T05:35:34.676Z,20.8877
2023-05-19T05:36:36.328Z,20.7659
2023-05-19T05:37:37.912Z,20.6998
2023-05-19T05:38:39.611Z,20.9074
2023-05-19T05:39:42.198Z,21.0126
2023-05-19T05:40:42.809Z,20.6694
2023-05-19T05:41:44.491Z,20.6445
2023-05-19T05:42:46.178Z,20.6827
2023-05-19T05:43:48.754Z,20.7645
2023-05-19T05:44:50.373Z,21.0527
2023-05-19T05:45:51.097Z,20.6141
2023-05-19T05:46:52.712Z,20.6488
2023-05-19T05:47:55.261Z,20.5685
2023-05-19T05:48:56.958Z,20.6527
2023-05-19T05:49:58.491Z,20.8951
2023-05-19T05:50:59.361Z,20.9093
2023-05-19T05:52:06.428Z,20.5630
2023-05-19T05:53:02.528Z,20.5082
2023-05-19T05:54:04.084Z,20.5539
2023-05-19T05:55:05.807Z,20.7006
2023-05-19T05:56:07.436Z,20.8043
2023-05-19T05:57:09.113Z,20.6390
2023-05-19T05:58:10.724Z,20.7700
2023-05-19T05:59:12.338Z,20.7645
2023-05-19T06:00:13.993Z,20.8335
2023-05-19T06:01:15.689Z,21.0757
2023-05-19T06:02:17.331Z,20.7197
2023-05-19T06:03:19.061Z,20.6449
2023-05-19T06:04:20.573Z,20.7230
2023-05-19T06:05:23.128Z,20.7749
2023-05-19T06:06:23.881Z,21.0738
2023-05-19T06:07:25.573Z,21.0128
2023-05-19T06:08:27.150Z,20.8709
2023-05-19T06:09:28.754Z,20.7513
2023-05-19T06:10:30.552Z,20.8581
2023-05-19T06:11:32.058Z,21.1361
2023-05-19T06:12:33.663Z,21.1751
2023-05-19T06:13:35.572Z,21.0539
2023-05-19T06:14:36.956Z,21.1480
2023-05-19T06:15:38.679Z,21.0576
2023-05-19T06:16:40.331Z,21.2065
2023-05-19T06:17:41.960Z,21.2819
2023-05-19T06:18:43.637Z,20.9964
2023-05-19T06:19:45.302Z,21.0561
2023-05-19T06:20:46.897Z,21.0373
2023-05-19T06:21:48.504Z,21.1352
2023-05-19T06:22:50.083Z,21.2262
2023-05-19T06:23:51.848Z,21.0233
2023-05-19T06:24:53.389Z,21.0171
2023-05-19T06:25:55.071Z,20.8271
2023-05-19T06:26:56.808Z,20.9403
2023-05-19T06:27:58.433Z,21.2030
2023-05-19T06:29:00.126Z,21.0927
2023-05-19T06:30:01.726Z,20.9559
2023-05-19T06:31:03.312Z,21.1075
2023-05-19T06:32:04.912Z,21.1422
2023-05-19T06:33:06.601Z,21.3571
2023-05-19T06:34:08.263Z,21.3706
2023-05-19T06:35:09.844Z,21.1804
2023-05-19T06:36:11.448Z,21.0999
2023-05-19T06:37:13.245Z,21.0845
2023-05-19T06:38:14.799Z,21.2581
2023-05-19T06:39:17.121Z,21.0453
2023-05-19T06:40:18.072Z,20.6166
2023-05-19T06:41:19.698Z,20.8027
2023-05-19T06:42:21.335Z,20.9265
2023-05-19T06:43:22.991Z,21.1564
2023-05-19T06:44:24.708Z,21.3195
2023-05-19T06:45:26.271Z,20.8902
2023-05-19T06:46:27.971Z,21.0518
2023-05-19T06:47:29.656Z,21.0373
2023-05-19T06:48:31.224Z,21.2318
2023-05-19T06:49:33.136Z,21.4255
2023-05-19T06:50:34.849Z,21.1198
2023-05-19T06:51:36.184Z,20.9596
2023-05-19T06:52:37.790Z,20.8255
2023-05-19T06:53:39.501Z,21.0034
2023-05-19T06:54:41.247Z,21.4031
2023-05-19T06:55:57.499Z,21.1114
2023-05-19T06:56:44.500Z,21.1229
2023-05-19T06:57:46.098Z,21.2336
2023-05-19T06:58:47.753Z,21.3254
2023-05-19T06:59:49.448Z,21.5921
2023-05-19T07:00:51.013Z,21.4263
2023-05-19T07:01:52.770Z,20.9284
2023-05-19T07:02:55.128Z,21.0280
2023-05-19T07:03:56.068Z,21.0467
2023-05-19T07:04:58.087Z,21.2735
2023-05-19T07:05:59.609Z,21.4994
2023-05-19T07:07:00.873Z,21.2827
2023-05-19T07:08:02.586Z,21.2907
2023-05-19T07:09:04.225Z,21.0999
2023-05-19T07:10:05.831Z,21.1983
2023-05-19T07:11:07.469Z,21.4846
2023-05-19T07:12:09.105Z,21.1876
2023-05-19T07:13:10.748Z,21.3098
2023-05-19T07:14:12.387Z,21.1402
2023-05-19T07:15:14.075Z,21.1069
2023-05-19T07:16:15.728Z,21.4031
2023-05-19T07:17:17.314Z,21.6331
2023-05-19T07:18:19.095Z,21.2870
2023-05-19T07:19:20.762Z,21.1319
2023-05-19T07:20:23.147Z,21.1685
2023-05-19T07:21:23.880Z,21.4189
2023-05-19T07:22:25.586Z,21.5286
2023-05-19T07:23:27.125Z,21.1204
2023-05-19T07:24:28.810Z,21.1067
2023-05-19T07:25:30.486Z,21.0841
2023-05-19T07:26:32.050Z,21.2657
2023-05-19T07:27:33.663Z,21.5502
2023-05-19T07:28:35.298Z,21.2710
2023-05-19T07:29:36.952Z,21.2885
2023-05-19T07:30:38.590Z,21.0414
2023-05-19T07:31:41.091Z,21.1999
2023-05-19T07:32:41.896Z,21.4624
2023-05-19T07:33:43.496Z,21.1808
2023-05-19T07:34:45.206Z,21.1414
2023-05-19T07:35:46.878Z,21.1689
2023-05-19T07:36:48.568Z,21.3419
2023-05-19T07:37:50.055Z,21.6060
2023-05-19T07:38:51.778Z,21.1856
2023-05-19T07:39:53.384Z,20.8366
2023-05-19T07:40:55.151Z,20.8468
2023-05-19T07:41:56.711Z,21.0611
2023-05-19T07:42:58.306Z,21.3261
2023-05-19T07:43:59.944Z,21.1299
2023-05-19T07:45:01.748Z,20.7337
2023-05-19T07:46:03.589Z,21.0200
2023-05-19T07:47:05.064Z,21.1954
2023-05-19T07:48:06.826Z,21.5280
2023-05-19T07:49:09.323Z,21.2837
2023-05-19T07:50:09.931Z,21.0227
2023-05-19T07:51:11.806Z,20.9670
2023-05-19T07:52:13.389Z,20.7193
2023-05-19T07:53:15.904Z,21.0344
2023-05-19T07:54:16.465Z,21.3788
2023-05-19T07:55:19.100Z,21.1077
2023-05-19T07:56:19.871Z,20.9331
2023-05-19T07:57:21.588Z,20.8173
2023-05-19T07:58:24.269Z,21.0773
2023-05-19T07:59:25.652Z,21.4460
2023-05-19T08:00:26.430Z,21.3439
2023-05-19T08:01:29.049Z,21.0551
2023-05-19T08:02:29.771Z,21.3384
2023-05-19T08:03:31.406Z,21.5380
2023-05-19T08:04:33.069Z,21.7017
2023-05-19T08:05:34.631Z,21.6079
2023-05-19T08:06:36.348Z,21.4501
2023-05-19T08:07:38.032Z,21.6153
2023-05-19T08:08:39.573Z,21.3850
2023-05-19T08:09:41.243Z,21.5762
2023-05-19T08:10:42.884Z,21.7934
2023-05-19T08:11:44.467Z,21.3096
2023-05-19T08:12:46.750Z,21.4193
2023-05-19T08:13:47.705Z,21.3030
2023-05-19T08:14:49.476Z,21.5033
2023-05-19T08:15:51.123Z,21.7786
2023-05-19T08:16:52.716Z,21.6594
2023-05-19T08:17:54.402Z,21.3805
2023-05-19T08:18:56.081Z,21.1574
2023-05-19T08:19:57.798Z,21.1276
2023-05-19T08:21:00.349Z,21.4351
2023-05-19T08:22:00.821Z,21.6056
2023-05-19T08:23:02.564Z,21.1593
2023-05-19T08:24:04.249Z,21.1206
2023-05-19T08:25:05.904Z,20.8850
2023-05-19T08:26:07.488Z,21.2086
2023-05-19T08:27:09.148Z,21.5771
2023-05-19T08:28:10.752Z,21.2562
2023-05-19T08:29:12.486Z,21.0329
2023-05-19T08:30:14.214Z,21.0857
2023-05-19T08:31:15.813Z,21.2786
2023-05-19T08:32:17.439Z,21.6042
2023-05-19T08:33:19.039Z,21.4362
2023-05-19T08:34:20.757Z,21.4345
2023-05-19T08:35:23.397Z,21.2318
2023-05-19T08:36:24.187Z,21.0260
2023-05-19T08:37:25.597Z,20.9972
2023-05-19T08:38:27.276Z,21.4080
2023-05-19T08:39:28.876Z,21.4626
2023-05-19T08:40:30.711Z,21.3219
2023-05-19T08:41:32.300Z,21.2564
2023-05-19T08:42:34.839Z,21.3743
2023-05-19T08:43:35.356Z,21.5278
2023-05-19T08:44:37.109Z,21.8018
2023-05-19T08:45:38.832Z,21.4314
2023-05-19T08:46:40.454Z,20.7657
2023-05-19T08:47:42.076Z,20.9547
2023-05-19T08:48:43.709Z,21.3326
2023-05-19T08:49:45.305Z,21.6853
2023-05-19T08:50:46.945Z,21.3030
2023-05-19T08:51:48.700Z,20.6862
2023-05-19T08:52:52.958Z,20.4884
2023-05-19T08:53:51.913Z,20.4629
2023-05-19T08:54:53.470Z,20.5336
2023-05-19T08:55:56.162Z,20.6833
2023-05-19T08:56:56.782Z,20.3021
2023-05-19T08:57:58.388Z,19.8445
2023-05-19T08:58:59.990Z,19.8219
2023-05-19T09:00:01.669Z,19.9895
2023-05-19T09:01:03.322Z,20.2312
2023-05-19T09:02:05.702Z,20.3128
2023-05-19T09:04:08.373Z,19.5082
2023-05-19T09:05:09.948Z,19.7009
2023-05-19T09:06:11.513Z,20.0749
2023-05-19T09:07:13.190Z,20.3159
2023-05-19T09:08:14.960Z,20.0492
2023-05-19T09:09:16.481Z,19.6216
2023-05-19T09:10:18.177Z,19.5092
2023-05-19T09:11:19.761Z,19.8069
2023-05-19T09:12:21.538Z,20.1743
2023-05-19T09:13:23.038Z,20.2518
2023-05-19T09:14:24.667Z,19.8274
2023-05-19T09:15:26.321Z,19.5509
2023-05-19T09:16:29.942Z,19.6600
2023-05-19T09:17:29.631Z,19.9648
2023-05-19T09:18:31.315Z,20.2680
2023-05-19T09:19:33.036Z,20.0458
2023-05-19T09:20:34.638Z,19.4057
2023-05-19T09:21:36.172Z,19.2132
2023-05-19T09:22:38.225Z,19.4657
2023-05-19T09:23:39.469Z,19.8539
2023-05-19T09:24:41.202Z,20.1031
2023-05-19T09:25:42.716Z,19.7604
2023-05-19T09:26:44.425Z,19.3461
2023-05-19T09:27:46.160Z,19.2453
2023-05-19T09:28:47.735Z,19.5805
2023-05-19T09:29:49.303Z,19.9983
2023-05-19T09:30:51.012Z,20.0675
2023-05-19T09:31:52.738Z,19.6816
2023-05-19T09:32:54.341Z,19.3112
2023-05-19T09:33:56.074Z,19.4182
2023-05-19T09:34:57.549Z,19.7477
2023-05-19T09:35:59.175Z,20.0554
2023-05-19T09:37:00.903Z,19.8580
2023-05-19T09:38:02.488Z,19.5117
2023-05-19T09:39:04.229Z,19.3864
2023-05-19T09:40:05.798Z,19.6103
2023-05-19T09:41:07.484Z,19.9504
2023-05-19T09:42:09.082Z,20.1072
2023-05-19T09:43:10.730Z,19.8079
2023-05-19T09:44:12.400Z,19.4443
2023-05-19T09:45:14.043Z,19.4741
2023-05-19T09:46:15.595Z,19.8138
2023-05-19T09:47:17.313Z,20.1230
2023-05-19T09:48:18.922Z,19.9309
2023-05-19T09:49:20.618Z,19.5411
2023-05-19T09:50:22.208Z,19.4712
2023-05-19T09:51:23.855Z,19.6793
2023-05-19T09:52:25.503Z,20.1326
2023-05-19T09:53:27.226Z,20.5934
2023-05-19T09:54:28.849Z,20.5196
2023-05-19T09:55:31.099Z,20.4473
2023-05-19T09:56:32.120Z,20.5463
2023-05-19T09:57:33.696Z,20.7951
2023-05-19T09:58:35.563Z,21.1673
2023-05-19T09:59:37.041Z,21.0724
2023-05-19T10:00:38.703Z,20.8682
2023-05-19T10:01:40.389Z,20.7146
2023-05-19T10:02:41.960Z,21.0085
2023-05-19T10:03:43.535Z,21.3074
2023-05-19T10:04:45.854Z,21.4134
2023-05-19T10:05:46.883Z,20.9765
2023-05-19T10:06:48.461Z,20.8733
2023-05-19T10:07:50.114Z,21.1282
2023-05-19T10:08:51.741Z,21.3137
2023-05-19T10:09:53.752Z,21.6477
2023-05-19T10:10:55.072Z,21.3063
2023-05-19T10:11:57.181Z,21.3008
2023-05-19T10:12:58.381Z,21.4275
2023-05-19T10:14:00.012Z,21.4343
2023-05-19T10:15:01.598Z,21.6794
2023-05-19T10:16:03.586Z,21.4830
2023-05-19T10:17:05.069Z,21.1925
2023-05-19T10:18:06.557Z,21.4569
2023-05-19T10:19:08.206Z,21.6299
2023-05-19T10:20:09.841Z,21.8854
2023-05-19T10:21:11.495Z,21.9811
2023-05-19T10:22:13.049Z,21.6249
2023-05-19T10:23:15.159Z,21.6584
2023-05-19T10:24:16.301Z,21.7539
2023-05-19T10:25:17.924Z,21.7839
2023-05-19T10:26:19.523Z,21.9410
2023-05-19T10:27:21.247Z,21.7529
2023-05-19T10:28:22.916Z,21.5091
2023-05-19T10:29:24.666Z,21.7734
2023-05-19T10:30:26.137Z,21.8848
2023-05-19T10:31:27.787Z,22.1082
2023-05-19T10:32:29.698Z,22.2481
2023-05-19T10:33:31.631Z,22.0877
2023-05-19T10:34:32.699Z,21.8406
2023-05-19T10:35:34.521Z,21.7418
2023-05-19T10:36:36.052Z,21.8264
2023-05-19T10:37:38.186Z,22.0343
2023-05-19T10:38:39.296Z,22.2502
2023-05-19T10:39:41.109Z,22.0978
2023-05-19T10:40:42.765Z,22.2383
2023-05-19T10:41:45.137Z,22.4630
2023-05-19T10:42:46.019Z,22.5525
2023-05-19T10:43:47.678Z,22.3539
2023-05-19T10:44:49.340Z,22.1039
2023-05-19T10:45:51.003Z,22.4055
2023-05-19T10:46:54.162Z,22.4426
2023-05-19T10:47:54.257Z,22.4882
2023-05-19T10:48:56.966Z,22.1705
2023-05-19T10:49:57.467Z,21.5651
2023-05-19T10:50:59.160Z,21.2994
2023-05-19T10:52:00.758Z,21.2307
2023-05-19T10:53:03.376Z,21.2622
2023-05-19T10:54:04.154Z,21.2455
2023-05-19T10:55:05.738Z,20.8148
2023-05-19T10:56:07.449Z,20.5032
2023-05-19T10:57:09.125Z,20.5730
2023-05-19T10:58:10.838Z,20.9000
2023-05-19T10:59:12.874Z,21.1890
2023-05-19T11:00:15.177Z,20.8144
2023-05-19T11:01:15.761Z,20.3945
2023-05-19T11:02:18.399Z,20.3366
2023-05-19T11:03:20.229Z,20.5638
2023-05-19T11:04:20.781Z,20.8729
2023-05-19T11:05:22.232Z,20.9824
2023-05-19T11:06:23.955Z,20.6308
2023-05-19T11:07:25.556Z,20.4654
2023-05-19T11:08:27.298Z,20.3615
2023-05-19T11:09:39.879Z,20.5498
2023-05-19T11:10:31.348Z,20.6355
2023-05-19T11:11:33.230Z,20.3430
2023-05-19T11:12:33.710Z,20.2234
2023-05-19T11:13:36.667Z,20.2232
2023-05-19T11:14:37.057Z,20.6790
2023-05-19T11:15:38.575Z,21.1196
2023-05-19T11:16:41.404Z,20.7583
2023-05-19T11:17:41.983Z,20.4001
2023-05-19T11:18:43.685Z,20.3105
2023-05-19T11:19:45.249Z,20.3978
2023-05-19T11:20:47.071Z,20.7556
2023-05-19T11:21:48.570Z,21.0079
2023-05-19T11:22:50.169Z,20.5893
2023-05-19T11:23:51.938Z,20.2906
2023-05-19T11:24:53.890Z,20.2616
2023-05-19T11:25:55.895Z,20.4779
2023-05-19T11:26:56.739Z,20.9290
2023-05-19T11:27:58.497Z,20.7374
2023-05-19T11:29:00.023Z,19.9511
2023-05-19T11:30:01.836Z,19.9509
2023-05-19T11:31:03.404Z,20.1470
2023-05-19T11:32:05.078Z,20.5763
2023-05-19T11:33:06.686Z,20.9087
2023-05-19T11:34:08.247Z,20.3888
2023-05-19T11:35:09.932Z,20.1158
2023-05-19T11:36:11.579Z,20.0918
2023-05-19T11:37:13.353Z,20.4691
2023-05-19T11:38:15.795Z,20.9481
2023-05-19T11:39:17.465Z,20.8824
2023-05-19T11:40:18.126Z,20.3912
2023-05-19T11:41:20.848Z,20.3140
2023-05-19T11:42:21.474Z,20.4903
2023-05-19T11:43:23.145Z,20.8752
2023-05-19T11:44:24.742Z,21.1500
2023-05-19T11:45:26.392Z,20.6084
2023-05-19T11:46:29.066Z,20.1998
2023-05-19T11:47:32.042Z,20.2039
2023-05-19T11:48:31.319Z,20.4457
2023-05-19T11:49:32.787Z,20.8684
2023-05-19T11:50:34.451Z,21.0642
2023-05-19T11:51:36.126Z,20.3775
2023-05-19T11:52:38.277Z,20.0698
2023-05-19T11:53:39.388Z,20.0944
2023-05-19T11:54:41.029Z,20.4907
2023-05-19T11:55:42.654Z,20.9641
2023-05-19T11:56:44.367Z,20.7967
2023-05-19T11:57:56.038Z,20.1622
2023-05-19T11:58:47.602Z,20.1265
2023-05-19T11:59:49.314Z,20.2875
2023-05-19T12:00:50.863Z,20.8070
2023-05-19T12:01:52.565Z,21.1636
2023-05-19T12:02:54.390Z,20.4253
2023-05-19T12:03:55.986Z,20.0716
2023-05-19T12:04:57.541Z,20.1250
2023-05-19T12:05:59.193Z,20.4625
2023-05-19T12:07:00.777Z,20.8752
2023-05-19T12:08:02.463Z,21.0576
2023-05-19T12:09:04.000Z,20.4424
2023-05-19T12:10:05.718Z,20.1992
2023-05-19T12:11:07.302Z,20.1994
2023-05-19T12:12:09.128Z,20.5254
2023-05-19T12:13:10.930Z,20.9062
2023-05-19T12:14:12.271Z,20.9358
2023-05-19T12:15:13.858Z,20.4549
2023-05-19T12:16:15.586Z,20.2789
2023-05-19T12:17:17.195Z,20.3387
2023-05-19T12:18:18.864Z,20.6108
2023-05-19T12:19:20.480Z,20.8811
2023-05-19T12:20:22.086Z,20.6408
2023-05-19T12:21:23.767Z,20.0864
2023-05-19T12:22:25.515Z,20.1008
2023-05-19T12:23:27.090Z,20.3185
2023-05-19T12:24:28.679Z,20.7400
2023-05-19T12:25:30.348Z,21.1032
2023-05-19T12:26:32.054Z,20.6466